Time;durP1;ratioP1;P1;durP2;ratioP2;P2;SDS_P1;SDS_P2;PMS_P1;PMS_P2;Temp;Humidity;BMP_temperature;BMP_pressure;BME280_temperature;BME280_humidity;BME280_pressure;Samples;Min_cycle;Max_cycle;Signal;HPM_P1;HPM_P2
2021/08/11 00:03:17;;;;;;;17.30;7.53;;;;;;;14.75;78.16;99524.62;513517;1092;116318;-57
2021/08/11 00:13:23;;;;;;;10.30;9.30;;;;;;;14.76;78.28;99513.08;517741;1093;116583;-56
2021/08/11 00:23:30;;;;;;;9.10;8.30;;;;;;;14.68;78.37;99511.05;530965;1092;116625;-57
2021/08/11 00:33:36;;;;;;;9.57;8.63;;;;;;;14.57;78.41;99506.63;530969;1092;116269;-57
2021/08/11 00:43:43;;;;;;;7.90;7.20;;;;;;;14.41;78.34;99493.83;530228;1093;117198;-57
2021/08/11 00:53:53;;;;;;;8.60;7.73;;;;;;;14.24;78.58;99500.48;530961;1092;116879;-57
2021/08/11 01:04:02;;;;;;;7.93;7.23;;;;;;;14.23;78.78;99505.91;530917;1092;115533;-58
2021/08/11 01:14:08;;;;;;;8.03;7.33;;;;;;;14.22;78.63;99507.70;530212;1092;116782;-57
2021/08/11 01:24:24;;;;;;;9.90;9.00;;;;;;;14.24;78.88;99507.59;527310;1092;116661;-58
2021/08/11 01:34:38;;;;;;;15.53;9.60;;;;;;;14.32;78.96;99507.81;530194;1092;167981;-57
2021/08/11 01:44:49;;;;;;;11.30;9.60;;;;;;;14.38;78.96;99519.69;529576;1092;116528;-57
2021/08/11 01:54:57;;;;;;;10.83;9.00;;;;;;;14.45;78.79;99520.84;528088;1093;116594;-58
2021/08/11 02:05:03;;;;;;;9.90;8.23;;;;;;;14.45;78.73;99515.56;530173;1092;116943;-58
2021/08/11 02:15:12;;;;;;;12.30;8.43;;;;;;;14.39;79.06;99510.80;530932;1092;116242;-58
2021/08/11 02:25:17;;;;;;;;;;;;;;;14.33;79.23;99514.77;530968;1092;116655;-58
2021/08/11 02:35:30;;;;;;;12.10;7.30;;;;;;;14.24;79.35;99516.34;525849;1092;103391;-57
2021/08/11 02:45:40;;;;;;;13.67;6.97;;;;;;;14.21;79.49;99484.08;528717;1093;116645;-58
2021/08/11 02:55:48;;;;;;;8.83;7.93;;;;;;;14.06;79.72;99537.14;522759;1092;116531;-58
2021/08/11 03:05:55;;;;;;;8.88;8.13;;;;;;;14.05;79.78;99522.26;530988;1092;116897;-58
2021/08/11 03:16:02;;;;;;;8.47;7.70;;;;;;;14.03;79.77;99526.83;530993;1092;116382;-58
2021/08/11 03:26:08;;;;;;;8.10;7.40;;;;;;;14.11;79.84;99527.06;530266;1092;117277;-58
2021/08/11 03:36:17;;;;;;;6.73;6.13;;;;;;;14.08;79.61;99532.60;531006;1093;116172;-58
2021/08/11 03:46:24;;;;;;;8.70;7.70;;;;;;;14.23;79.61;99548.17;530295;1092;116456;-58
2021/08/11 03:56:31;;;;;;;6.60;6.00;;;;;;;14.40;79.28;99547.63;530849;1092;116355;-56
2021/08/11 04:06:37;;;;;;;6.73;5.77;;;;;;;14.81;79.27;99554.98;530917;1092;116888;-57
2021/08/11 04:16:44;;;;;;;5.77;5.27;;;;;;;15.46;78.49;99549.56;529319;1092;117337;-57
2021/08/11 04:26:50;;;;;;;6.70;6.10;;;;;;;15.74;77.28;99547.20;530540;1092;117140;-57
2021/08/11 04:36:56;;;;;;;6.33;5.73;;;;;;;15.60;76.83;99555.50;530859;1092;116940;-57
2021/08/11 04:47:04;;;;;;;6.87;6.30;;;;;;;15.73;77.04;99556.11;530041;1093;116072;-57
2021/08/11 04:57:10;;;;;;;6.67;6.00;;;;;;;16.21;76.51;99562.56;531000;1092;116422;-57
2021/08/11 05:07:17;;;;;;;7.07;6.33;;;;;;;17.05;75.78;99556.94;530949;1092;116986;-57
2021/08/11 05:17:24;;;;;;;6.10;5.60;;;;;;;18.85;74.55;99549.68;527786;1093;116466;-59
2021/08/11 05:27:31;;;;;;;9.50;6.00;;;;;;;24.08;70.91;99560.26;530890;1092;119353;-58
2021/08/11 05:37:39;;;;;;;14.67;5.97;;;;;;;33.79;56.64;99552.82;530103;1092;116697;-58
2021/08/11 05:47:46;;;;;;;5.90;3.97;;;;;;;39.61;45.85;99562.92;512398;1093;115803;-57
2021/08/11 05:57:52;;;;;;;3.75;3.23;;;;;;;41.92;38.22;99558.51;530843;1092;116780;-58
2021/08/11 06:08:00;;;;;;;4.60;3.60;;;;;;;43.99;34.28;99563.34;530084;1093;116984;-65
2021/08/11 06:18:06;;;;;;;7.37;4.23;;;;;;;45.33;30.13;99565.55;530436;1092;117652;-63
2021/08/11 06:28:14;;;;;;;8.07;3.17;;;;;;;47.52;27.15;99567.43;522058;1093;116318;-63
2021/08/11 06:38:20;;;;;;;6.08;3.65;;;;;;;48.99;23.91;99562.00;530260;1092;116703;-63
2021/08/11 06:48:27;;;;;;;6.68;3.40;;;;;;;50.68;21.84;99569.61;530985;1092;116772;-63
2021/08/11 06:58:35;;;;;;;9.27;4.07;;;;;;;52.12;20.08;99580.53;530200;1092;116298;-64
2021/08/11 07:08:44;;;;;;;4.48;4.18;;;;;;;53.09;18.36;99575.06;530978;1092;116580;-63
2021/08/11 07:18:51;;;;;;;5.43;4.93;;;;;;;52.26;17.68;99577.88;530978;1092;116223;-60
2021/08/11 07:28:57;;;;;;;5.53;5.13;;;;;;;49.81;17.53;99586.59;530242;1093;116105;-58
2021/08/11 07:39:04;;;;;;;5.38;5.00;;;;;;;49.20;18.23;99568.12;530888;1092;115878;-60
2021/08/11 07:49:10;;;;;;;5.58;5.18;;;;;;;52.19;17.24;99574.20;530974;1092;115772;-72
2021/08/11 07:59:17;;;;;;;7.38;6.95;;;;;;;51.39;16.60;99584.34;530185;1092;115718;-69
2021/08/11 08:09:23;;;;;;;5.90;5.50;;;;;;;50.78;15.69;99587.72;530223;1093;116611;-61
2021/08/11 08:19:30;;;;;;;5.63;2.45;;;;;;;42.73;18.12;99577.33;530278;1093;116107;-62
2021/08/11 08:29:36;;;;;;;2.35;2.20;;;;;;;35.72;23.13;99592.41;530972;1092;117286;-61
2021/08/11 08:39:46;;;;;;;2.87;2.50;;;;;;;30.77;28.14;99597.08;530991;1092;116486;-61
2021/08/11 08:49:53;;;;;;;3.65;3.35;;;;;;;28.80;31.07;99599.34;530237;1093;118579;-61
2021/08/11 08:59:59;;;;;;;5.03;2.00;;;;;;;27.49;33.61;99592.14;530978;1092;116328;-61
2021/08/11 09:10:19;;;;;;;2.83;1.80;;;;;;;26.67;35.15;99593.98;530921;1092;116219;-63
2021/08/11 09:20:43;;;;;;;2.43;1.97;;;;;;;25.37;36.36;99595.41;530469;1093;116672;-61
2021/08/11 09:30:49;;;;;;;4.60;2.23;;;;;;;25.65;36.90;99607.20;530316;1092;116727;-61
2021/08/11 09:41:01;;;;;;;2.55;1.93;;;;;;;25.82;37.33;99603.16;530265;1092;116678;-69
2021/08/11 09:51:10;;;;;;;3.37;2.10;;;;;;;26.02;37.63;99603.25;530896;1093;116344;-70
2021/08/11 10:01:28;;;;;;;3.43;2.40;;;;;;;25.43;37.75;99607.23;530943;1092;116835;-67
2021/08/11 10:11:39;;;;;;;3.33;1.90;;;;;;;26.12;37.44;99612.81;530983;1092;116782;-68
2021/08/11 10:21:49;;;;;;;1.80;1.43;;;;;;;26.35;36.28;99620.61;531031;1093;116381;-67
2021/08/11 10:31:56;;;;;;;6.07;1.77;;;;;;;26.50;35.83;99623.15;530175;1093;117427;-67
2021/08/11 10:42:11;;;;;;;5.18;1.40;;;;;;;26.29;36.62;99624.09;530938;1093;116528;-58
2021/08/11 10:52:18;;;;;;;3.27;1.60;;;;;;;25.78;36.82;99634.17;530971;1092;117296;-65
2021/08/11 11:02:47;;;;;;;1.87;1.30;;;;;;;25.67;37.29;99632.03;529599;1093;116608;-63
2021/08/11 11:12:55;;;;;;;4.53;1.73;;;;;;;25.21;37.03;99638.66;530814;1093;115899;-65
2021/08/11 11:23:06;;;;;;;1.67;1.20;;;;;;;25.29;37.85;99636.69;529551;1092;117204;-68
2021/08/11 11:33:33;;;;;;;2.17;1.50;;;;;;;24.76;38.02;99623.57;530915;1092;115457;-69
2021/08/11 11:43:40;;;;;;;1.95;1.15;;;;;;;24.93;38.06;99632.20;530194;1092;116484;-66
2021/08/11 11:53:46;;;;;;;3.80;1.80;;;;;;;25.01;38.15;99632.09;530905;1092;115908;-72
2021/08/11 12:03:55;;;;;;;3.30;1.60;;;;;;;25.26;38.35;99629.00;530885;1093;116373;-65
2021/08/11 12:14:02;;;;;;;2.47;1.50;;;;;;;25.41;37.57;99636.16;530222;1092;116851;-67
2021/08/11 12:24:07;;;;;;;;;;;;;;;25.01;38.67;99637.46;531040;1092;116437;-67
2021/08/11 12:34:14;;;;;;;1.50;1.40;;;;;;;24.44;39.88;99641.80;527491;1092;102489;-66
2021/08/11 12:44:26;;;;;;;2.33;2.08;;;;;;;24.07;40.00;99639.05;530194;1092;117336;-64
2021/08/11 12:54:53;;;;;;;2.70;2.27;;;;;;;23.57;41.05;99641.39;530965;1092;117058;-63
2021/08/11 13:05:10;;;;;;;2.60;2.03;;;;;;;23.55;41.73;99640.75;530206;1092;116052;-67
2021/08/11 13:15:22;;;;;;;;;;;;;;;23.69;41.92;99637.25;530876;1093;116167;-66
2021/08/11 13:25:29;;;;;;;3.03;2.20;;;;;;;23.58;41.28;99624.30;530531;1092;102275;-66
2021/08/11 13:35:37;;;;;;;2.63;1.83;;;;;;;23.24;41.82;99629.92;530985;1092;115780;-67
2021/08/11 13:45:43;;;;;;;3.07;2.03;;;;;;;22.86;42.22;99635.24;529232;1092;115510;-67
2021/08/11 13:55:49;;;;;;;3.30;2.70;;;;;;;22.93;42.07;99616.63;530262;1093;116170;-67
2021/08/11 14:05:56;;;;;;;2.97;1.70;;;;;;;23.08;41.13;99628.20;525592;1092;115884;-67
2021/08/11 14:16:04;;;;;;;1.93;1.73;;;;;;;23.02;41.88;99631.63;530972;1092;117611;-70
2021/08/11 14:26:10;;;;;;;3.58;2.05;;;;;;;22.80;41.90;99625.27;530317;1092;116350;-65
2021/08/11 14:36:17;;;;;;;4.20;2.20;;;;;;;22.64;42.27;99647.61;530781;1093;115989;-78
2021/08/11 14:46:24;;;;;;;2.40;1.50;;;;;;;22.71;42.45;99637.84;530892;1092;116002;-62
2021/08/11 14:56:32;;;;;;;2.30;1.63;;;;;;;22.59;42.45;99634.75;507055;1092;10001661;-69
2021/08/11 15:06:40;;;;;;;2.83;1.80;;;;;;;22.74;42.90;99633.98;518838;1092;116603;-67
2021/08/11 15:16:48;;;;;;;4.30;1.75;;;;;;;22.66;42.59;99637.55;514168;1093;115839;-61
2021/08/11 15:26:55;;;;;;;1.85;1.53;;;;;;;23.05;41.44;99636.61;530857;1092;115636;-61
2021/08/11 15:37:02;;;;;;;2.37;1.70;;;;;;;23.13;41.32;99637.57;532469;1089;115376;-59
2021/08/11 15:47:09;;;;;;;4.30;2.23;;;;;;;23.01;41.06;99640.67;531836;1089;116603;-61
2021/08/11 15:57:16;;;;;;;3.43;1.65;;;;;;;22.77;40.89;99638.98;532568;1089;115696;-63
2021/08/11 16:07:24;;;;;;;4.87;2.40;;;;;;;22.58;41.37;99650.97;532576;1088;116566;-65
2021/08/11 16:17:35;;;;;;;1.63;1.50;;;;;;;22.48;40.84;99648.49;523603;1089;10001041;-65
2021/08/11 16:27:43;;;;;;;3.25;1.60;;;;;;;22.08;41.25;99645.81;532481;1089;116615;-62
2021/08/11 16:37:54;;;;;;;6.45;2.23;;;;;;;21.61;42.31;99658.92;522453;1088;116974;-61
2021/08/11 16:48:01;;;;;;;4.80;2.00;;;;;;;21.51;42.55;99659.08;519810;1089;115728;-61
2021/08/11 16:58:08;;;;;;;3.03;2.77;;;;;;;21.37;43.62;99668.62;519216;1088;115708;-61
2021/08/11 17:08:15;;;;;;;3.87;2.13;;;;;;;21.02;44.83;99680.42;521750;1089;116033;-62
2021/08/11 17:18:23;;;;;;;3.20;1.67;;;;;;;21.99;44.15;99690.45;532510;1088;116144;-60
2021/08/11 17:28:30;;;;;;;2.90;2.60;;;;;;;21.10;45.13;99691.94;516741;1089;115914;-61
2021/08/11 17:38:37;;;;;;;2.47;2.27;;;;;;;20.59;46.24;99697.28;527917;1089;173812;-62
2021/08/11 17:48:45;;;;;;;4.10;3.13;;;;;;;20.20;47.83;99701.31;532527;1090;115848;-61
2021/08/11 17:58:53;;;;;;;2.53;2.10;;;;;;;19.82;48.50;99709.53;525072;1089;116556;-61
2021/08/11 18:09:00;;;;;;;6.55;2.50;;;;;;;19.35;50.66;99717.81;516376;1088;115487;-62
2021/08/11 18:19:07;;;;;;;6.67;2.10;;;;;;;18.91;52.44;99729.98;530145;1088;116605;-67
2021/08/11 18:29:16;;;;;;;5.47;2.87;;;;;;;18.52;53.79;99741.66;531801;1088;115916;-67
2021/08/11 18:39:24;;;;;;;5.70;2.90;;;;;;;18.10;55.08;99758.86;524841;1088;116100;-69
2021/08/11 18:49:32;;;;;;;4.80;2.30;;;;;;;17.73;56.33;99778.17;516240;1090;116650;-68
2021/08/11 18:59:39;;;;;;;12.73;4.17;;;;;;;17.34;57.35;99790.42;520105;1088;116611;-67
2021/08/11 19:09:46;;;;;;;5.77;3.03;;;;;;;17.01;58.40;99791.63;532530;1089;117409;-68
2021/08/11 19:19:53;;;;;;;9.15;4.38;;;;;;;16.72;59.46;99795.81;531778;1088;118278;-67
2021/08/11 19:30:00;;;;;;;3.77;2.93;;;;;;;16.57;60.32;99797.98;532474;1089;116335;-67
2021/08/11 19:40:09;;;;;;;5.33;3.20;;;;;;;16.48;60.97;99802.27;515408;1090;116611;-68
2021/08/11 19:50:16;;;;;;;6.37;3.57;;;;;;;16.18;61.65;99811.84;518079;1090;115605;-67
2021/08/11 20:00:23;;;;;;;5.70;4.73;;;;;;;15.93;62.52;99828.97;515097;1088;116403;-69
2021/08/11 20:10:29;;;;;;;10.03;4.67;;;;;;;15.66;63.63;99836.38;524593;1088;117298;-65
2021/08/11 20:20:36;;;;;;;8.57;4.80;;;;;;;15.54;64.21;99837.38;516632;1088;116445;-66
2021/08/11 20:30:42;;;;;;;9.20;4.53;;;;;;;15.33;64.56;99851.36;519143;1090;116199;-67
2021/08/11 20:40:50;;;;;;;8.10;4.43;;;;;;;15.11;64.86;99858.36;514308;1089;116448;-67
2021/08/11 20:50:57;;;;;;;8.27;4.70;;;;;;;14.92;65.47;99876.63;514783;1089;116896;-67
2021/08/11 21:01:03;;;;;;;4.83;4.33;;;;;;;14.71;66.08;99866.71;524445;1090;116407;-67
2021/08/11 21:11:10;;;;;;;11.63;4.47;;;;;;;14.51;66.58;99874.39;527346;1089;116806;-63
2021/08/11 21:21:17;;;;;;;5.43;4.73;;;;;;;14.31;67.11;99878.52;522833;1089;117056;-63
2021/08/11 21:31:23;;;;;;;6.90;4.40;;;;;;;14.17;67.64;99887.50;532419;1088;116326;-58
2021/08/11 21:41:30;;;;;;;6.17;4.30;;;;;;;14.07;67.93;99897.06;526614;1089;116592;-70
2021/08/11 21:51:37;;;;;;;6.57;4.53;;;;;;;13.91;68.50;99902.63;529115;1088;116358;-64
2021/08/11 22:01:43;;;;;;;10.70;5.43;;;;;;;13.81;68.97;99913.84;531778;1088;116904;-64
2021/08/11 22:11:50;;;;;;;7.67;4.67;;;;;;;13.71;68.95;99911.04;532551;1088;117757;-65
2021/08/11 22:21:57;;;;;;;6.03;4.70;;;;;;;13.63;69.51;99917.83;516260;1089;115973;-64
2021/08/11 22:32:04;;;;;;;8.60;5.20;;;;;;;13.63;69.80;99925.75;518716;1089;116562;-65
2021/08/11 22:42:12;;;;;;;7.07;4.37;;;;;;;13.51;69.94;99930.94;524444;1089;117077;-65
2021/08/11 22:52:19;;;;;;;6.08;4.13;;;;;;;13.36;70.29;99927.56;532441;1088;115780;-66
2021/08/11 23:02:25;;;;;;;7.23;5.10;;;;;;;13.19;70.47;99918.20;523908;1088;117996;-64
2021/08/11 23:12:32;;;;;;;4.37;3.97;;;;;;;13.01;70.68;99915.05;523610;1089;116863;-65
2021/08/11 23:22:39;;;;;;;8.63;4.70;;;;;;;12.88;71.02;99928.22;531759;1088;116393;-64
2021/08/11 23:32:45;;;;;;;8.40;4.97;;;;;;;12.78;71.08;99929.78;524458;1088;116363;-63
2021/08/11 23:42:53;;;;;;;4.40;4.00;;;;;;;12.67;71.65;99931.36;524623;1088;116047;-58
2021/08/11 23:53:00;;;;;;;5.53;4.10;;;;;;;12.58;71.75;99931.97;521808;1089;116513;-58
